createdAt,value
2019-06-27T00:04:42.175Z,76.14
2019-06-27T00:10:46.786Z,76.43
2019-06-27T00:16:53.155Z,78.37
2019-06-27T00:22:57.727Z,79.11
2019-06-27T00:29:02.291Z,78.71
2019-06-27T00:35:08.533Z,78.33
2019-06-27T00:41:13.098Z,79.08
2019-06-27T00:47:17.661Z,79.31
2019-06-27T00:53:22.223Z,79.31
2019-06-27T00:59:26.772Z,79.28
2019-06-27T01:05:31.447Z,78.86
2019-06-27T01:11:35.998Z,77.99
2019-06-27T01:17:40.637Z,78.24
2019-06-27T01:23:45.294Z,77.93
2019-06-27T01:29:50.511Z,77.60
2019-06-27T01:35:55.066Z,78.16
2019-06-27T01:41:59.631Z,78.70
2019-06-27T01:48:04.268Z,78.84
2019-06-27T01:54:08.835Z,79.40
2019-06-27T02:00:14.004Z,78.98
2019-06-27T02:06:18.562Z,79.13
2019-06-27T02:12:23.188Z,78.35
2019-06-27T02:18:27.764Z,78.69
2019-06-27T02:24:32.337Z,79.23
2019-06-27T02:30:44.909Z,78.93
2019-06-27T02:36:49.470Z,77.87
2019-06-27T02:42:54.203Z,77.85
2019-06-27T02:48:58.795Z,77.46
2019-06-27T02:55:03.418Z,76.92
2019-06-27T03:01:07.975Z,77.98
2019-06-27T03:07:12.533Z,77.22
2019-06-27T03:13:17.179Z,77.70
2019-06-27T03:19:23.279Z,77.34
2019-06-27T03:25:27.840Z,77.37
2019-06-27T03:31:32.404Z,74.95
2019-06-27T03:37:36.958Z,74.99
2019-06-27T03:43:41.540Z,74.72
2019-06-27T03:49:46.096Z,75.01
2019-06-27T03:55:51.383Z,74.86
2019-06-27T04:01:56.019Z,73.66
2019-06-27T04:08:00.582Z,73.99
2019-06-27T04:14:05.230Z,73.39
2019-06-27T04:20:10.238Z,72.49
2019-06-27T04:26:14.799Z,72.53
2019-06-27T04:32:19.706Z,72.77
2019-06-27T04:38:24.272Z,73.12
2019-06-27T04:44:29.006Z,73.05
2019-06-27T04:50:33.563Z,73.01
2019-06-27T04:56:38.145Z,73.47
2019-06-27T05:02:42.711Z,73.87
2019-06-27T05:08:47.288Z,72.47
2019-06-27T05:14:51.897Z,72.70
2019-06-27T05:20:56.496Z,72.09
2019-06-27T05:27:01.073Z,70.82
2019-06-27T05:33:05.715Z,70.73
2019-06-27T05:39:10.273Z,69.94
2019-06-27T05:45:15.066Z,69.92
2019-06-27T05:51:19.720Z,71.01
2019-06-27T05:57:24.267Z,69.73
2019-06-27T06:03:28.832Z,69.29
2019-06-27T06:09:33.399Z,68.78
2019-06-27T06:15:37.973Z,70.33
2019-06-27T06:21:42.539Z,68.98
2019-06-27T06:27:47.103Z,66.49
2019-06-27T06:33:51.679Z,65.44
2019-06-27T06:39:56.240Z,65.12
2019-06-27T06:46:00.825Z,63.02
2019-06-27T06:52:05.545Z,62.46
2019-06-27T06:58:10.101Z,61.59
2019-06-27T07:04:14.663Z,58.52
2019-06-27T07:10:20.036Z,59.68
2019-06-27T07:16:24.597Z,60.12
2019-06-27T07:22:29.159Z,60.90
2019-06-27T07:28:33.734Z,59.38
2019-06-27T07:34:38.279Z,59.78
2019-06-27T07:40:42.847Z,59.02
2019-06-27T07:46:47.444Z,58.04
2019-06-27T07:52:52.028Z,58.02
2019-06-27T07:58:56.599Z,54.78
2019-06-27T08:05:01.186Z,53.52
2019-06-27T08:11:05.811Z,52.21
2019-06-27T08:17:10.574Z,50.77
2019-06-27T08:23:15.278Z,49.70
2019-06-27T08:29:19.908Z,49.95
2019-06-27T08:35:24.540Z,48.87
2019-06-27T08:41:29.919Z,50.08
2019-06-27T08:47:34.524Z,49.46
2019-06-27T08:53:39.093Z,48.81
2019-06-27T08:59:43.641Z,47.21
2019-06-27T09:05:48.235Z,44.50
2019-06-27T09:11:52.871Z,47.14
2019-06-27T09:17:57.456Z,43.92
2019-06-27T09:24:02.024Z,44.21
2019-06-27T09:30:09.024Z,46.44
2019-06-27T09:36:13.579Z,43.63
2019-06-27T09:42:18.141Z,42.31
2019-06-27T09:48:22.723Z,43.38
2019-06-27T09:54:27.273Z,42.49
2019-06-27T10:00:31.991Z,44.53
2019-06-27T10:06:36.632Z,42.97
2019-06-27T10:12:43.152Z,44.71
2019-06-27T10:18:47.713Z,41.55
2019-06-27T10:24:52.317Z,39.73
2019-06-27T10:30:57.092Z,39.42
2019-06-27T10:37:01.650Z,39.76
2019-06-27T10:43:06.288Z,38.63
2019-06-27T10:49:10.856Z,41.13
2019-06-27T10:55:15.560Z,38.18
2019-06-27T11:01:20.213Z,36.77
2019-06-27T11:07:24.773Z,37.84
2019-06-27T11:13:29.341Z,37.82
2019-06-27T11:19:33.973Z,37.37
2019-06-27T11:25:38.530Z,35.83
2019-06-27T11:31:43.091Z,36.81
2019-06-27T11:37:47.648Z,37.47
2019-06-27T11:43:52.214Z,37.78
2019-06-27T11:49:56.770Z,36.69
2019-06-27T11:56:01.403Z,35.20
2019-06-27T12:02:05.985Z,34.98
2019-06-27T12:08:11.109Z,36.08
2019-06-27T12:14:15.802Z,36.74
2019-06-27T12:20:20.671Z,35.50
2019-06-27T12:26:25.235Z,34.48
2019-06-27T12:32:29.798Z,34.05
2019-06-27T12:38:34.377Z,36.17
2019-06-27T12:44:38.994Z,34.64
2019-06-27T12:50:43.554Z,35.01
2019-06-27T12:56:48.720Z,33.52
2019-06-27T13:02:53.282Z,33.62
2019-06-27T13:08:57.841Z,32.54
2019-06-27T13:15:02.480Z,33.25
2019-06-27T13:21:07.200Z,32.47
2019-06-27T13:27:11.776Z,32.03
2019-06-27T13:33:16.525Z,30.75
2019-06-27T13:39:21.160Z,31.71
2019-06-27T13:45:26.756Z,31.26
2019-06-27T13:51:31.433Z,30.95
2019-06-27T13:57:36.067Z,31.63
2019-06-27T14:03:49.261Z,31.43
2019-06-27T14:09:53.674Z,30.24
2019-06-27T14:15:53.257Z,31.49
2019-06-27T14:21:58.985Z,32.35
2019-06-27T14:28:03.687Z,32.75
2019-06-27T14:34:08.322Z,31.61
2019-06-27T14:40:13.803Z,32.96
2019-06-27T14:46:18.449Z,30.57
2019-06-27T14:52:23.010Z,32.27
2019-06-27T14:58:27.571Z,32.39
2019-06-27T15:04:32.128Z,32.08
2019-06-27T15:10:36.766Z,32.08
2019-06-27T15:16:41.312Z,34.51
2019-06-27T15:22:45.885Z,32.39
2019-06-27T15:28:50.537Z,32.93
2019-06-27T15:34:55.121Z,34.79
2019-06-27T15:40:59.678Z,34.43
2019-06-27T15:47:04.247Z,34.51
2019-06-27T15:53:08.872Z,35.74
2019-06-27T15:59:13.438Z,35.87
2019-06-27T16:05:18.645Z,35.69
2019-06-27T16:11:23.250Z,37.48
2019-06-27T16:17:27.818Z,37.42
2019-06-27T16:23:32.384Z,37.14
2019-06-27T16:29:37.017Z,38.31
2019-06-27T16:35:41.715Z,38.55
2019-06-27T16:41:46.268Z,36.83
2019-06-27T16:47:50.832Z,34.71
2019-06-27T16:53:55.389Z,30.63
2019-06-27T17:00:00.028Z,29.36
2019-06-27T17:06:04.603Z,27.76
2019-06-27T17:12:09.167Z,28.33
2019-06-27T17:18:13.891Z,28.89
2019-06-27T17:24:18.460Z,27.11
2019-06-27T17:30:23.672Z,28.18
2019-06-27T17:36:28.253Z,28.34
2019-06-27T17:42:32.795Z,29.31
2019-06-27T17:48:37.372Z,28.34
2019-06-27T17:54:41.929Z,30.10
2019-06-27T18:00:46.568Z,30.12
2019-06-27T18:06:51.115Z,30.39
2019-06-27T18:12:55.684Z,29.86
2019-06-27T18:19:00.820Z,31.48
2019-06-27T18:25:06.396Z,33.41
2019-06-27T18:31:11.033Z,35.33
2019-06-27T18:37:28.830Z,35.51
2019-06-27T18:43:21.953Z,37.17
2019-06-27T18:49:26.519Z,38.33
2019-06-27T18:55:31.149Z,39.77
2019-06-27T19:01:35.707Z,44.62
2019-06-27T19:07:45.875Z,48.72
2019-06-27T19:13:46.798Z,51.61
2019-06-27T19:19:53.175Z,53.92
2019-06-27T19:25:59.620Z,55.05
2019-06-27T19:32:04.337Z,56.47
2019-06-27T19:38:08.908Z,57.84
2019-06-27T19:44:13.521Z,58.48
2019-06-27T19:50:18.735Z,59.68
2019-06-27T19:56:23.303Z,61.34
2019-06-27T20:02:27.863Z,61.05
2019-06-27T20:08:32.419Z,62.26
2019-06-27T20:14:36.985Z,63.13
2019-06-27T20:20:41.988Z,63.57
2019-06-27T20:26:46.623Z,63.64
2019-06-27T20:32:51.247Z,63.94
2019-06-27T20:38:55.813Z,64.60
2019-06-27T20:45:00.372Z,65.77
2019-06-27T20:51:05.073Z,66.93
2019-06-27T20:57:09.621Z,66.88
2019-06-27T21:03:14.241Z,67.78
2019-06-27T21:09:18.961Z,68.54
2019-06-27T21:15:23.935Z,69.22
2019-06-27T21:21:28.555Z,68.29
2019-06-27T21:27:33.238Z,68.49
2019-06-27T21:33:37.794Z,68.90
2019-06-27T21:39:42.497Z,69.93
2019-06-27T21:45:47.123Z,70.39
2019-06-27T21:51:51.752Z,69.79
2019-06-27T21:57:59.726Z,68.87
2019-06-27T22:04:02.709Z,69.90
2019-06-27T22:10:09.048Z,70.18
2019-06-27T22:16:13.670Z,70.10
2019-06-27T22:22:18.393Z,70.84
2019-06-27T22:28:23.005Z,70.69
2019-06-27T22:34:27.569Z,71.27
2019-06-27T22:40:50.170Z,71.04
2019-06-27T22:47:12.823Z,70.83
2019-06-27T22:53:20.846Z,70.46
2019-06-27T22:59:25.321Z,71.99
2019-06-27T23:05:29.876Z,71.84
2019-06-27T23:11:34.432Z,71.91
2019-06-27T23:17:39.095Z,72.61
2019-06-27T23:23:43.648Z,72.67
2019-06-27T23:29:49.750Z,73.83
2019-06-27T23:35:54.333Z,73.62
2019-06-27T23:41:58.898Z,74.67
2019-06-27T23:48:03.523Z,74.73
2019-06-27T23:54:08.992Z,75.24
